sensor_id;sensor_type;location;lat;lon;timestamp;pressure;altitude;pressure_sealevel;temperature;humidity
63808;BME280;49961;43.970;22.868;2023-02-21T00:00:36;101649.31;;;10.55;90.58
63808;BME280;49961;43.970;22.868;2023-02-21T00:01:55;101651.28;;;10.54;90.81
63808;BME280;49961;43.970;22.868;2023-02-21T00:03:14;101644.56;;;10.52;90.72
63808;BME280;49961;43.970;22.868;2023-02-21T00:04:33;101639.91;;;10.38;91.91
63808;BME280;49961;43.970;22.868;2023-02-21T00:05:52;101587.88;;;10.02;91.88
63808;BME280;49961;43.970;22.868;2023-02-21T00:07:11;101640.19;;;10.54;92.14
63808;BME280;49961;43.970;22.868;2023-02-21T00:08:30;101635.41;;;10.58;91.86
63808;BME280;49961;43.970;22.868;2023-02-21T00:09:49;101648.06;;;10.59;91.38
63808;BME280;49961;43.970;22.868;2023-02-21T00:11:08;101542.38;;;10.03;91.91
63808;BME280;49961;43.970;22.868;2023-02-21T00:12:27;101637.34;;;10.61;91.95
63808;BME280;49961;43.970;22.868;2023-02-21T00:13:45;101637.78;;;10.60;91.87
63808;BME280;49961;43.970;22.868;2023-02-21T00:15:05;101641.28;;;10.64;91.07
63808;BME280;49961;43.970;22.868;2023-02-21T00:16:24;101640.13;;;10.65;91.01
63808;BME280;49961;43.970;22.868;2023-02-21T00:17:44;101625.13;;;10.55;90.69
63808;BME280;49961;43.970;22.868;2023-02-21T00:19:03;101616.41;;;10.57;90.25
63808;BME280;49961;43.970;22.868;2023-02-21T00:20:23;101627.88;;;10.59;90.35
63808;BME280;49961;43.970;22.868;2023-02-21T00:21:42;101620.34;;;10.59;90.25
63808;BME280;49961;43.970;22.868;2023-02-21T00:23:01;101627.03;;;10.65;89.96
63808;BME280;49961;43.970;22.868;2023-02-21T00:24:19;101616.78;;;10.59;89.37
63808;BME280;49961;43.970;22.868;2023-02-21T00:25:38;101625.44;;;10.68;89.07
63808;BME280;49961;43.970;22.868;2023-02-21T00:26:57;101620.75;;;10.58;89.23
63808;BME280;49961;43.970;22.868;2023-02-21T00:28:17;101613.66;;;10.57;89.85
63808;BME280;49961;43.970;22.868;2023-02-21T00:29:36;101615.66;;;10.53;89.84
63808;BME280;49961;43.970;22.868;2023-02-21T00:30:54;101514.00;;;9.88;89.87
63808;BME280;49961;43.970;22.868;2023-02-21T00:32:13;101608.13;;;10.53;90.48
63808;BME280;49961;43.970;22.868;2023-02-21T00:33:35;101601.38;;;10.54;91.13
63808;BME280;49961;43.970;22.868;2023-02-21T00:34:54;101610.91;;;10.53;91.20
63808;BME280;49961;43.970;22.868;2023-02-21T00:36:16;101609.31;;;10.56;90.92
63808;BME280;49961;43.970;22.868;2023-02-21T00:37:35;101592.72;;;10.49;90.12
63808;BME280;49961;43.970;22.868;2023-02-21T00:38:54;101609.66;;;10.58;91.03
63808;BME280;49961;43.970;22.868;2023-02-21T00:40:14;101609.34;;;10.52;91.58
63808;BME280;49961;43.970;22.868;2023-02-21T00:41:33;101602.59;;;10.53;91.71
63808;BME280;49961;43.970;22.868;2023-02-21T00:42:52;101607.38;;;10.49;91.46
63808;BME280;49961;43.970;22.868;2023-02-21T00:44:11;101541.19;;;10.11;90.54
63808;BME280;49961;43.970;22.868;2023-02-21T00:45:30;101602.25;;;10.44;90.54
63808;BME280;49961;43.970;22.868;2023-02-21T00:46:49;101593.97;;;10.41;91.00
63808;BME280;49961;43.970;22.868;2023-02-21T00:48:07;101444.28;;;9.49;90.60
63808;BME280;49961;43.970;22.868;2023-02-21T00:49:26;101591.22;;;10.41;90.47
63808;BME280;49961;43.970;22.868;2023-02-21T00:50:45;101597.13;;;10.43;91.35
63808;BME280;49961;43.970;22.868;2023-02-21T00:52:04;101570.34;;;10.26;91.13
63808;BME280;49961;43.970;22.868;2023-02-21T00:53:24;101525.44;;;9.97;90.82
63808;BME280;49961;43.970;22.868;2023-02-21T00:54:43;101575.44;;;10.34;90.79
63808;BME280;49961;43.970;22.868;2023-02-21T00:56:03;101574.63;;;10.34;90.02
63808;BME280;49961;43.970;22.868;2023-02-21T00:57:22;101574.56;;;10.44;89.98
63808;BME280;49961;43.970;22.868;2023-02-21T00:58:41;101542.19;;;10.34;89.42
63808;BME280;49961;43.970;22.868;2023-02-21T01:00:00;101569.53;;;10.73;87.38
63808;BME280;49961;43.970;22.868;2023-02-21T01:01:19;101548.66;;;10.61;87.09
63808;BME280;49961;43.970;22.868;2023-02-21T01:02:38;101569.84;;;10.82;86.09
63808;BME280;49961;43.970;22.868;2023-02-21T01:03:58;101466.75;;;10.16;85.84
63808;BME280;49961;43.970;22.868;2023-02-21T01:05:17;101565.00;;;10.93;85.46
63808;BME280;49961;43.970;22.868;2023-02-21T01:06:36;101558.69;;;10.89;84.91
63808;BME280;49961;43.970;22.868;2023-02-21T01:07:55;101566.09;;;10.99;84.21
63808;BME280;49961;43.970;22.868;2023-02-21T01:09:13;101415.03;;;9.99;83.98
63808;BME280;49961;43.970;22.868;2023-02-21T01:10:32;101568.56;;;10.90;84.35
63808;BME280;49961;43.970;22.868;2023-02-21T01:11:51;101570.03;;;11.01;84.28
63808;BME280;49961;43.970;22.868;2023-02-21T01:13:10;101431.97;;;10.12;83.86
63808;BME280;49961;43.970;22.868;2023-02-21T01:14:30;101442.06;;;10.29;83.08
63808;BME280;49961;43.970;22.868;2023-02-21T01:15:49;101563.56;;;11.15;82.71
63808;BME280;49961;43.970;22.868;2023-02-21T01:17:08;101564.41;;;11.12;83.18
63808;BME280;49961;43.970;22.868;2023-02-21T01:18:27;101558.75;;;11.19;82.33
63808;BME280;49961;43.970;22.868;2023-02-21T01:19:46;101555.63;;;11.13;82.93
63808;BME280;49961;43.970;22.868;2023-02-21T01:21:05;101558.81;;;11.15;82.20
63808;BME280;49961;43.970;22.868;2023-02-21T01:22:24;101560.31;;;11.20;82.32
63808;BME280;49961;43.970;22.868;2023-02-21T01:23:43;101555.69;;;11.10;82.55
63808;BME280;49961;43.970;22.868;2023-02-21T01:25:02;101554.53;;;11.07;82.26
63808;BME280;49961;43.970;22.868;2023-02-21T01:26:21;101541.72;;;10.83;82.63
63808;BME280;49961;43.970;22.868;2023-02-21T01:27:40;101570.63;;;10.86;83.61
63808;BME280;49961;43.970;22.868;2023-02-21T01:28:59;101466.97;;;10.36;83.93
63808;BME280;49961;43.970;22.868;2023-02-21T01:30:18;101539.72;;;10.84;84.08
63808;BME280;49961;43.970;22.868;2023-02-21T01:31:37;101557.47;;;10.93;83.79
63808;BME280;49961;43.970;22.868;2023-02-21T01:32:56;101544.88;;;10.85;84.21
63808;BME280;49961;43.970;22.868;2023-02-21T01:34:15;101539.28;;;10.89;84.45
63808;BME280;49961;43.970;22.868;2023-02-21T01:35:34;101542.88;;;10.86;83.98
63808;BME280;49961;43.970;22.868;2023-02-21T01:36:53;101511.78;;;10.68;84.03
63808;BME280;49961;43.970;22.868;2023-02-21T01:38:12;101386.28;;;9.86;84.16
63808;BME280;49961;43.970;22.868;2023-02-21T01:39:31;101538.25;;;10.72;85.11
63808;BME280;49961;43.970;22.868;2023-02-21T01:40:50;101528.81;;;10.66;85.79
63808;BME280;49961;43.970;22.868;2023-02-21T01:42:09;101427.69;;;10.00;85.21
63808;BME280;49961;43.970;22.868;2023-02-21T01:43:29;101538.25;;;10.72;85.22
63808;BME280;49961;43.970;22.868;2023-02-21T01:45:05;101531.84;;;10.79;84.30
63808;BME280;49961;43.970;22.868;2023-02-21T01:46:27;101533.00;;;10.81;84.09
63808;BME280;49961;43.970;22.868;2023-02-21T01:47:46;101523.53;;;10.79;84.20
63808;BME280;49961;43.970;22.868;2023-02-21T01:49:11;101516.78;;;10.80;84.40
63808;BME280;49961;43.970;22.868;2023-02-21T01:50:31;101519.94;;;10.82;84.05
63808;BME280;49961;43.970;22.868;2023-02-21T01:51:50;101469.16;;;10.55;83.27
63808;BME280;49961;43.970;22.868;2023-02-21T01:53:13;101462.81;;;10.54;82.81
63808;BME280;49961;43.970;22.868;2023-02-21T01:54:37;101402.66;;;10.14;82.58
63808;BME280;49961;43.970;22.868;2023-02-21T01:55:59;101511.25;;;10.80;82.12
63808;BME280;49961;43.970;22.868;2023-02-21T01:57:19;101434.19;;;10.27;82.26
63808;BME280;49961;43.970;22.868;2023-02-21T01:58:39;101337.38;;;9.69;81.84
63808;BME280;49961;43.970;22.868;2023-02-21T02:00:02;101504.84;;;10.86;81.55
63808;BME280;49961;43.970;22.868;2023-02-21T02:01:28;101503.25;;;10.85;81.50
63808;BME280;49961;43.970;22.868;2023-02-21T02:04:18;101484.50;;;10.96;80.67
63808;BME280;49961;43.970;22.868;2023-02-21T02:05:38;101477.41;;;10.95;80.72
63808;BME280;49961;43.970;22.868;2023-02-21T02:06:58;101505.84;;;11.03;80.50
63808;BME280;49961;43.970;22.868;2023-02-21T02:08:20;101495.00;;;11.15;79.49
63808;BME280;49961;43.970;22.868;2023-02-21T02:09:42;101465.50;;;10.98;78.54
63808;BME280;49961;43.970;22.868;2023-02-21T02:15:51;101486.63;;;11.49;74.75
63808;BME280;49961;43.970;22.868;2023-02-21T02:16:58;101493.63;;;11.57;74.21
63808;BME280;49961;43.970;22.868;2023-02-21T02:21:52;101482.75;;;11.73;72.06
63808;BME280;49961;43.970;22.868;2023-02-21T02:25:59;101486.50;;;11.86;70.47
63808;BME280;49961;43.970;22.868;2023-02-21T02:32:36;101498.81;;;11.85;69.69
63808;BME280;49961;43.970;22.868;2023-02-21T02:33:45;101501.66;;;11.81;70.00
63808;BME280;49961;43.970;22.868;2023-02-21T02:36:36;101368.66;;;11.07;69.71
63808;BME280;49961;43.970;22.868;2023-02-21T02:37:53;101490.13;;;11.83;69.27
63808;BME280;49961;43.970;22.868;2023-02-21T02:40:18;101491.56;;;11.91;69.15
63808;BME280;49961;43.970;22.868;2023-02-21T02:42:58;101475.19;;;11.73;69.16
63808;BME280;49961;43.970;22.868;2023-02-21T02:44:15;101499.16;;;11.87;68.77
63808;BME280;49961;43.970;22.868;2023-02-21T02:45:27;101501.47;;;11.92;68.82
63808;BME280;49961;43.970;22.868;2023-02-21T02:46:30;101496.03;;;11.85;68.67
63808;BME280;49961;43.970;22.868;2023-02-21T02:47:35;101496.38;;;11.87;68.85
63808;BME280;49961;43.970;22.868;2023-02-21T02:48:39;101488.72;;;11.94;68.44
63808;BME280;49961;43.970;22.868;2023-02-21T02:49:44;101491.97;;;11.93;68.35
63808;BME280;49961;43.970;22.868;2023-02-21T02:50:48;101491.91;;;11.96;68.10
63808;BME280;49961;43.970;22.868;2023-02-21T02:51:50;101353.66;;;11.05;68.08
63808;BME280;49961;43.970;22.868;2023-02-21T02:52:53;101442.06;;;11.59;68.45
63808;BME280;49961;43.970;22.868;2023-02-21T02:53:54;101330.59;;;10.81;68.81
63808;BME280;49961;43.970;22.868;2023-02-21T02:55:03;101488.50;;;11.85;69.06
63808;BME280;49961;43.970;22.868;2023-02-21T02:56:07;101488.53;;;11.82;69.25
63808;BME280;49961;43.970;22.868;2023-02-21T02:57:10;101486.56;;;11.82;69.48
63808;BME280;49961;43.970;22.868;2023-02-21T02:58:12;101446.50;;;11.53;69.52
63808;BME280;49961;43.970;22.868;2023-02-21T02:59:17;101484.56;;;11.83;69.76
63808;BME280;49961;43.970;22.868;2023-02-21T03:00:21;101419.72;;;11.40;69.39
63808;BME280;49961;43.970;22.868;2023-02-21T03:01:41;101476.53;;;11.88;69.01
63808;BME280;49961;43.970;22.868;2023-02-21T03:02:56;101477.34;;;11.89;68.71
63808;BME280;49961;43.970;22.868;2023-02-21T03:05:54;101488.19;;;11.80;69.08
63808;BME280;49961;43.970;22.868;2023-02-21T03:08:32;101482.28;;;11.74;69.31
63808;BME280;49961;43.970;22.868;2023-02-21T03:11:19;101424.28;;;11.27;70.26
63808;BME280;49961;43.970;22.868;2023-02-21T03:12:49;101439.78;;;11.51;69.73
63808;BME280;49961;43.970;22.868;2023-02-21T03:14:13;101484.78;;;11.69;69.56
63808;BME280;49961;43.970;22.868;2023-02-21T03:15:21;101412.81;;;11.25;69.73
63808;BME280;49961;43.970;22.868;2023-02-21T03:16:43;101476.91;;;11.64;69.87
63808;BME280;49961;43.970;22.868;2023-02-21T03:18:12;101476.50;;;11.65;69.61
63808;BME280;49961;43.970;22.868;2023-02-21T03:19:27;101476.06;;;11.67;69.38
63808;BME280;49961;43.970;22.868;2023-02-21T03:20:32;101480.06;;;11.66;69.36
63808;BME280;49961;43.970;22.868;2023-02-21T03:21:48;101372.81;;;10.96;69.64
63808;BME280;49961;43.970;22.868;2023-02-21T03:22:51;101348.03;;;10.82;70.35
63808;BME280;49961;43.970;22.868;2023-02-21T03:23:56;101472.56;;;11.63;69.83
63808;BME280;49961;43.970;22.868;2023-02-21T03:24:59;101476.19;;;11.60;70.13
63808;BME280;49961;43.970;22.868;2023-02-21T03:26:04;101471.84;;;11.59;70.02
63808;BME280;49961;43.970;22.868;2023-02-21T03:27:07;101461.09;;;11.61;70.08
63808;BME280;49961;43.970;22.868;2023-02-21T03:28:08;101474.56;;;11.62;70.19
63808;BME280;49961;43.970;22.868;2023-02-21T03:29:08;101373.31;;;10.87;70.18
63808;BME280;49961;43.970;22.868;2023-02-21T03:30:10;101476.13;;;11.63;70.04
63808;BME280;49961;43.970;22.868;2023-02-21T03:31:13;101474.50;;;11.66;69.79
63808;BME280;49961;43.970;22.868;2023-02-21T03:32:34;101462.31;;;11.56;70.16
63808;BME280;49961;43.970;22.868;2023-02-21T03:33:35;101481.63;;;11.67;70.47
63808;BME280;49961;43.970;22.868;2023-02-21T03:34:39;101408.06;;;11.25;69.70
63808;BME280;49961;43.970;22.868;2023-02-21T03:35:40;101467.31;;;11.68;69.55
63808;BME280;49961;43.970;22.868;2023-02-21T03:36:41;101471.31;;;11.67;69.45
63808;BME280;49961;43.970;22.868;2023-02-21T03:37:47;101472.00;;;11.75;69.67
63808;BME280;49961;43.970;22.868;2023-02-21T03:38:48;101367.97;;;11.03;69.36
63808;BME280;49961;43.970;22.868;2023-02-21T03:39:48;101470.09;;;11.68;69.63
63808;BME280;49961;43.970;22.868;2023-02-21T03:40:49;101471.63;;;11.73;69.45
63808;BME280;49961;43.970;22.868;2023-02-21T03:41:49;101467.31;;;11.68;69.65
63808;BME280;49961;43.970;22.868;2023-02-21T03:42:51;101469.31;;;11.68;69.43
63808;BME280;49961;43.970;22.868;2023-02-21T03:43:52;101461.28;;;11.73;69.57
63808;BME280;49961;43.970;22.868;2023-02-21T03:44:52;101460.94;;;11.71;69.49
63808;BME280;49961;43.970;22.868;2023-02-21T03:45:53;101453.97;;;11.60;69.39
63808;BME280;49961;43.970;22.868;2023-02-21T03:46:53;101462.19;;;11.67;69.38
63808;BME280;49961;43.970;22.868;2023-02-21T03:47:54;101461.09;;;11.61;69.58
63808;BME280;49961;43.970;22.868;2023-02-21T03:48:54;101461.00;;;11.68;69.68
63808;BME280;49961;43.970;22.868;2023-02-21T03:49:54;101465.34;;;11.69;69.38
63808;BME280;49961;43.970;22.868;2023-02-21T03:50:55;101448.78;;;11.62;69.21
63808;BME280;49961;43.970;22.868;2023-02-21T03:51:55;101458.16;;;11.71;69.80
63808;BME280;49961;43.970;22.868;2023-02-21T03:52:56;101461.34;;;11.70;69.43
63808;BME280;49961;43.970;22.868;2023-02-21T03:53:56;101453.38;;;11.72;69.21
63808;BME280;49961;43.970;22.868;2023-02-21T03:54:57;101455.44;;;11.68;69.74
63808;BME280;49961;43.970;22.868;2023-02-21T03:55:57;101418.06;;;11.46;69.45
63808;BME280;49961;43.970;22.868;2023-02-21T03:56:57;101447.63;;;11.59;69.63
63808;BME280;49961;43.970;22.868;2023-02-21T03:57:58;101432.13;;;11.58;69.51
63808;BME280;49961;43.970;22.868;2023-02-21T03:58:58;101445.50;;;11.70;69.62
63808;BME280;49961;43.970;22.868;2023-02-21T03:59:59;101434.16;;;11.58;69.56
63808;BME280;49961;43.970;22.868;2023-02-21T04:00:59;101448.00;;;11.61;69.55
63808;BME280;49961;43.970;22.868;2023-02-21T04:02:00;101454.28;;;11.65;70.25
63808;BME280;49961;43.970;22.868;2023-02-21T04:03:00;101448.44;;;11.56;70.55
63808;BME280;49961;43.970;22.868;2023-02-21T04:04:01;101432.31;;;11.48;70.45
63808;BME280;49961;43.970;22.868;2023-02-21T04:05:02;101438.09;;;11.57;70.32
63808;BME280;49961;43.970;22.868;2023-02-21T04:06:02;101442.06;;;11.59;70.30
63808;BME280;49961;43.970;22.868;2023-02-21T04:07:03;101420.34;;;11.51;69.62
63808;BME280;49961;43.970;22.868;2023-02-21T04:08:04;101436.94;;;11.58;69.78
63808;BME280;49961;43.970;22.868;2023-02-21T04:09:04;101365.84;;;11.11;70.05
63808;BME280;49961;43.970;22.868;2023-02-21T04:10:05;101429.53;;;11.48;70.30
63808;BME280;49961;43.970;22.868;2023-02-21T04:11:05;101428.19;;;11.59;70.13
63808;BME280;49961;43.970;22.868;2023-02-21T04:12:06;101437.34;;;11.56;69.97
63808;BME280;49961;43.970;22.868;2023-02-21T04:13:07;101339.16;;;10.94;69.53
63808;BME280;49961;43.970;22.868;2023-02-21T04:14:08;101425.44;;;11.56;70.13
63808;BME280;49961;43.970;22.868;2023-02-21T04:15:10;101432.97;;;11.59;69.82
63808;BME280;49961;43.970;22.868;2023-02-21T04:16:11;101425.41;;;11.59;69.86
63808;BME280;49961;43.970;22.868;2023-02-21T04:17:11;101388.53;;;11.32;69.49
63808;BME280;49961;43.970;22.868;2023-02-21T04:18:12;101431.22;;;11.68;68.89
63808;BME280;49961;43.970;22.868;2023-02-21T04:19:12;101306.34;;;10.89;68.71
63808;BME280;49961;43.970;22.868;2023-02-21T04:20:13;101421.59;;;11.76;68.14
63808;BME280;49961;43.970;22.868;2023-02-21T04:21:17;101419.16;;;11.78;68.05
63808;BME280;49961;43.970;22.868;2023-02-21T04:22:18;101415.50;;;11.85;67.73
63808;BME280;49961;43.970;22.868;2023-02-21T04:23:19;101413.88;;;11.87;67.51
63808;BME280;49961;43.970;22.868;2023-02-21T04:24:20;101333.44;;;11.31;67.27
63808;BME280;49961;43.970;22.868;2023-02-21T04:25:20;101242.94;;;10.64;67.48
63808;BME280;49961;43.970;22.868;2023-02-21T04:26:21;101411.56;;;11.82;67.82
63808;BME280;49961;43.970;22.868;2023-02-21T04:27:23;101253.78;;;10.82;67.20
63808;BME280;49961;43.970;22.868;2023-02-21T04:28:23;101410.28;;;11.87;67.43
63808;BME280;49961;43.970;22.868;2023-02-21T04:29:24;101349.47;;;11.46;67.09
63808;BME280;49961;43.970;22.868;2023-02-21T04:30:25;101403.97;;;11.86;67.21
63808;BME280;49961;43.970;22.868;2023-02-21T04:31:26;101407.50;;;11.87;67.01
63808;BME280;49961;43.970;22.868;2023-02-21T04:32:26;101401.41;;;11.95;66.95
63808;BME280;49961;43.970;22.868;2023-02-21T04:33:26;101307.16;;;11.39;66.06
63808;BME280;49961;43.970;22.868;2023-02-21T04:34:27;101401.66;;;12.04;66.33
63808;BME280;49961;43.970;22.868;2023-02-21T04:35:28;101403.34;;;11.98;66.18
63808;BME280;49961;43.970;22.868;2023-02-21T04:36:29;101387.84;;;12.01;65.90
63808;BME280;49961;43.970;22.868;2023-02-21T04:37:29;101391.44;;;11.98;66.14
63808;BME280;49961;43.970;22.868;2023-02-21T04:38:29;101387.09;;;11.97;66.03
63808;BME280;49961;43.970;22.868;2023-02-21T04:39:30;101369.28;;;11.94;65.62
63808;BME280;49961;43.970;22.868;2023-02-21T04:40:31;101387.00;;;12.04;65.60
63808;BME280;49961;43.970;22.868;2023-02-21T04:41:31;101381.88;;;12.02;65.46
63808;BME280;49961;43.970;22.868;2023-02-21T04:42:32;101382.53;;;12.10;65.25
63808;BME280;49961;43.970;22.868;2023-02-21T04:43:32;101381.78;;;12.06;65.02
63808;BME280;49961;43.970;22.868;2023-02-21T04:44:33;101380.88;;;12.12;65.11
63808;BME280;49961;43.970;22.868;2023-02-21T04:45:33;101380.31;;;12.21;64.62
63808;BME280;49961;43.970;22.868;2023-02-21T04:46:34;101377.63;;;12.17;64.26
63808;BME280;49961;43.970;22.868;2023-02-21T04:47:34;101371.69;;;12.15;64.44
63808;BME280;49961;43.970;22.868;2023-02-21T04:48:34;101368.25;;;12.08;64.45
63808;BME280;49961;43.970;22.868;2023-02-21T04:49:35;101379.41;;;12.27;63.82
63808;BME280;49961;43.970;22.868;2023-02-21T04:50:35;101358.25;;;12.14;63.56
63808;BME280;49961;43.970;22.868;2023-02-21T04:51:36;101304.59;;;11.74;64.04
63808;BME280;49961;43.970;22.868;2023-02-21T04:52:36;101363.34;;;12.15;64.16
63808;BME280;49961;43.970;22.868;2023-02-21T04:53:40;101283.34;;;11.64;64.06
63808;BME280;49961;43.970;22.868;2023-02-21T04:54:40;101360.47;;;12.22;63.62
63808;BME280;49961;43.970;22.868;2023-02-21T04:55:41;101364.81;;;12.23;63.95
63808;BME280;49961;43.970;22.868;2023-02-21T04:56:41;101306.56;;;11.97;64.01
63808;BME280;49961;43.970;22.868;2023-02-21T04:57:41;101360.63;;;12.35;63.58
63808;BME280;49961;43.970;22.868;2023-02-21T04:58:42;101354.69;;;12.33;62.87
63808;BME280;49961;43.970;22.868;2023-02-21T04:59:42;101362.59;;;12.34;62.69
63808;BME280;49961;43.970;22.868;2023-02-21T05:00:43;101366.25;;;12.31;63.09
63808;BME280;49961;43.970;22.868;2023-02-21T05:01:43;101362.19;;;12.36;62.82
63808;BME280;49961;43.970;22.868;2023-02-21T05:02:44;101352.63;;;12.37;62.41
63808;BME280;49961;43.970;22.868;2023-02-21T05:03:45;101241.44;;;11.59;62.49
63808;BME280;49961;43.970;22.868;2023-02-21T05:04:45;101365.22;;;12.41;62.02
63808;BME280;49961;43.970;22.868;2023-02-21T05:05:46;101301.88;;;12.13;61.87
63808;BME280;49961;43.970;22.868;2023-02-21T05:06:46;101363.88;;;12.49;62.07
63808;BME280;49961;43.970;22.868;2023-02-21T05:07:47;101356.34;;;12.50;61.62
63808;BME280;49961;43.970;22.868;2023-02-21T05:08:48;101360.63;;;12.54;61.45
63808;BME280;49961;43.970;22.868;2023-02-21T05:09:48;101351.13;;;12.52;61.48
63808;BME280;49961;43.970;22.868;2023-02-21T05:10:49;101351.34;;;12.61;61.24
63808;BME280;49961;43.970;22.868;2023-02-21T05:11:49;101352.13;;;12.61;60.87
63808;BME280;49961;43.970;22.868;2023-02-21T05:12:50;101350.47;;;12.64;60.62
63808;BME280;49961;43.970;22.868;2023-02-21T05:13:51;101364.75;;;12.66;60.32
63808;BME280;49961;43.970;22.868;2023-02-21T05:14:52;101356.75;;;12.68;60.13
63808;BME280;49961;43.970;22.868;2023-02-21T05:15:52;101218.25;;;11.88;59.90
63808;BME280;49961;43.970;22.868;2023-02-21T05:16:53;101337.38;;;12.45;59.77
63808;BME280;49961;43.970;22.868;2023-02-21T05:17:53;101354.25;;;12.73;59.65
63808;BME280;49961;43.970;22.868;2023-02-21T05:18:54;101349.03;;;12.75;59.40
63808;BME280;49961;43.970;22.868;2023-02-21T05:19:54;101341.41;;;12.79;58.88
63808;BME280;49961;43.970;22.868;2023-02-21T05:20:55;101357.94;;;12.86;58.74
63808;BME280;49961;43.970;22.868;2023-02-21T05:21:57;101349.69;;;12.83;58.85
63808;BME280;49961;43.970;22.868;2023-02-21T05:22:58;101351.63;;;12.86;58.56
63808;BME280;49961;43.970;22.868;2023-02-21T05:23:59;101355.59;;;12.85;58.75
63808;BME280;49961;43.970;22.868;2023-02-21T05:24:59;101346.47;;;12.84;58.67
63808;BME280;49961;43.970;22.868;2023-02-21T05:26:08;101351.66;;;12.82;58.62
63808;BME280;49961;43.970;22.868;2023-02-21T05:27:09;101281.06;;;12.41;58.65
63808;BME280;49961;43.970;22.868;2023-02-21T05:28:14;101343.91;;;12.93;58.48
63808;BME280;49961;43.970;22.868;2023-02-21T05:29:15;101336.72;;;12.96;58.02
63808;BME280;49961;43.970;22.868;2023-02-21T05:30:18;101343.41;;;12.98;57.97
63808;BME280;49961;43.970;22.868;2023-02-21T05:31:18;101346.97;;;12.99;58.17
63808;BME280;49961;43.970;22.868;2023-02-21T05:32:20;101343.59;;;13.07;57.95
63808;BME280;49961;43.970;22.868;2023-02-21T05:33:21;101364.16;;;13.13;57.52
63808;BME280;49961;43.970;22.868;2023-02-21T05:34:21;101360.28;;;13.07;57.36
63808;BME280;49961;43.970;22.868;2023-02-21T05:35:21;101351.09;;;13.10;57.55
63808;BME280;49961;43.970;22.868;2023-02-21T05:36:22;101336.13;;;13.04;57.66
63808;BME280;49961;43.970;22.868;2023-02-21T05:37:25;101340.81;;;13.07;57.38
63808;BME280;49961;43.970;22.868;2023-02-21T05:38:26;101347.78;;;13.15;57.42
63808;BME280;49961;43.970;22.868;2023-02-21T05:39:26;101362.03;;;13.17;57.32
63808;BME280;49961;43.970;22.868;2023-02-21T05:40:26;101347.38;;;13.17;57.23
63808;BME280;49961;43.970;22.868;2023-02-21T05:41:27;101349.63;;;13.22;57.23
63808;BME280;49961;43.970;22.868;2023-02-21T05:42:27;101355.13;;;13.25;56.92
63808;BME280;49961;43.970;22.868;2023-02-21T05:43:28;101361.91;;;13.24;56.97
63808;BME280;49961;43.970;22.868;2023-02-21T05:44:33;101283.94;;;12.73;56.87
63808;BME280;49961;43.970;22.868;2023-02-21T05:45:33;101362.25;;;13.26;56.72
63808;BME280;49961;43.970;22.868;2023-02-21T05:46:34;101240.44;;;12.47;56.93
63808;BME280;49961;43.970;22.868;2023-02-21T05:47:34;101353.78;;;13.14;57.12
63808;BME280;49961;43.970;22.868;2023-02-21T05:48:35;101363.28;;;13.16;57.22
63808;BME280;49961;43.970;22.868;2023-02-21T05:49:35;101363.97;;;13.20;57.03
63808;BME280;49961;43.970;22.868;2023-02-21T05:50:36;101375.13;;;13.20;57.20
63808;BME280;49961;43.970;22.868;2023-02-21T05:51:41;101372.03;;;13.15;57.33
63808;BME280;49961;43.970;22.868;2023-02-21T05:52:42;101318.56;;;12.88;57.30
63808;BME280;49961;43.970;22.868;2023-02-21T05:53:42;101358.59;;;13.29;56.97
63808;BME280;49961;43.970;22.868;2023-02-21T05:54:43;101362.59;;;13.28;56.95
63808;BME280;49961;43.970;22.868;2023-02-21T05:55:44;101367.56;;;13.37;56.79
63808;BME280;49961;43.970;22.868;2023-02-21T05:56:46;101169.22;;;12.17;56.46
63808;BME280;49961;43.970;22.868;2023-02-21T05:57:47;101379.34;;;13.44;56.19
63808;BME280;49961;43.970;22.868;2023-02-21T05:58:48;101340.16;;;13.19;56.15
63808;BME280;49961;43.970;22.868;2023-02-21T05:59:48;101295.00;;;12.92;56.58
63808;BME280;49961;43.970;22.868;2023-02-21T06:00:50;101372.53;;;13.45;56.72
63808;BME280;49961;43.970;22.868;2023-02-21T06:01:50;101370.88;;;13.48;56.42
63808;BME280;49961;43.970;22.868;2023-02-21T06:02:51;101264.38;;;12.76;55.79
63808;BME280;49961;43.970;22.868;2023-02-21T06:03:52;101393.34;;;13.57;55.67
63808;BME280;49961;43.970;22.868;2023-02-21T06:04:52;101379.44;;;13.57;55.62
63808;BME280;49961;43.970;22.868;2023-02-21T06:05:52;101391.25;;;13.61;55.53
63808;BME280;49961;43.970;22.868;2023-02-21T06:06:53;101382.75;;;13.52;55.59
63808;BME280;49961;43.970;22.868;2023-02-21T06:07:53;101266.13;;;12.70;56.02
63808;BME280;49961;43.970;22.868;2023-02-21T06:08:54;101400.06;;;13.59;56.31
63808;BME280;49961;43.970;22.868;2023-02-21T06:09:54;101393.19;;;13.64;55.74
63808;BME280;49961;43.970;22.868;2023-02-21T06:10:56;101400.66;;;13.67;55.28
63808;BME280;49961;43.970;22.868;2023-02-21T06:11:56;101374.72;;;13.54;54.76
63808;BME280;49961;43.970;22.868;2023-02-21T06:12:57;101367.78;;;13.62;54.87
63808;BME280;49961;43.970;22.868;2023-02-21T06:13:59;101407.00;;;13.83;54.78
63808;BME280;49961;43.970;22.868;2023-02-21T06:15:00;101331.09;;;13.31;54.42
63808;BME280;49961;43.970;22.868;2023-02-21T06:16:01;101399.25;;;13.75;54.28
63808;BME280;49961;43.970;22.868;2023-02-21T06:17:01;101360.09;;;13.50;54.25
63808;BME280;49961;43.970;22.868;2023-02-21T06:18:02;101317.53;;;13.17;54.58
63808;BME280;49961;43.970;22.868;2023-02-21T06:19:05;101343.56;;;13.43;53.99